Map

Track Data

SID SEASON NUMBER BASIN SUBBASIN NAME ISO_TIME NATURE LAT LON WMO_WIND WMO_PRES WMO_AGENCY TRACK_TYPE DIST2LAND LANDFALL IFLAG USA_AGENCY USA_ATCF_ID USA_LAT USA_LON USA_RECORD USA_STATUS USA_WIND USA_PRES USA_SSHS USA_R34_NE USA_R34_SE USA_R34_SW USA_R34_NW USA_R50_NE USA_R50_SE USA_R50_SW USA_R50_NW USA_R64_NE USA_R64_SE USA_R64_SW USA_R64_NW USA_POCI USA_ROCI USA_RMW USA_EYE TOKYO_LAT TOKYO_LON TOKYO_GRADE TOKYO_WIND TOKYO_PRES TOKYO_R50_DIR TOKYO_R50_LONG TOKYO_R50_SHORT TOKYO_R30_DIR TOKYO_R30_LONG TOKYO_R30_SHORT TOKYO_LAND CMA_LAT CMA_LON CMA_CAT CMA_WIND CMA_PRES HKO_LAT HKO_LON HKO_CAT HKO_WIND HKO_PRES NEWDELHI_LAT NEWDELHI_LON NEWDELHI_GRADE NEWDELHI_WIND NEWDELHI_PRES NEWDELHI_CI NEWDELHI_DP NEWDELHI_POCI REUNION_LAT REUNION_LON REUNION_TYPE REUNION_WIND REUNION_PRES REUNION_TNUM REUNION_CI REUNION_RMW REUNION_R34_NE REUNION_R34_SE REUNION_R34_SW REUNION_R34_NW REUNION_R50_NE REUNION_R50_SE REUNION_R50_SW REUNION_R50_NW REUNION_R64_NE REUNION_R64_SE REUNION_R64_SW REUNION_R64_NW BOM_LAT BOM_LON BOM_TYPE BOM_WIND BOM_PRES BOM_TNUM BOM_CI BOM_RMW BOM_R34_NE BOM_R34_SE BOM_R34_SW BOM_R34_NW BOM_R50_NE BOM_R50_SE BOM_R50_SW BOM_R50_NW BOM_R64_NE BOM_R64_SE BOM_R64_SW BOM_R64_NW BOM_ROCI BOM_POCI BOM_EYE BOM_POS_METHOD BOM_PRES_METHOD NADI_LAT NADI_LON NADI_CAT NADI_WIND NADI_PRES WELLINGTON_LAT WELLINGTON_LON WELLINGTON_WIND WELLINGTON_PRES DS824_LAT DS824_LON DS824_STAGE DS824_WIND DS824_PRES TD9636_LAT TD9636_LON TD9636_STAGE TD9636_WIND TD9636_PRES TD9635_LAT TD9635_LON TD9635_WIND TD9635_PRES TD9635_ROCI NEUMANN_LAT NEUMANN_LON NEUMANN_CLASS NEUMANN_WIND NEUMANN_PRES MLC_LAT MLC_LON MLC_CLASS MLC_WIND MLC_PRES USA_GUST BOM_GUST BOM_GUST_PER REUNION_GUST REUNION_GUST_PER USA_SEAHGT USA_SEARAD_NE USA_SEARAD_SE USA_SEARAD_SW USA_SEARAD_NW STORM_SPEED STORM_DIR
1948137N15093 1948 30 NI BB NOT_NAMED 1948-05-15 18:00:00 TS 14.6000 93.2000 main 186 141 O________O____ jtwc_io IO031948 14.6000 93.2000 -1 14.6000 93.2000 TC 9 70
1948137N15093 1948 30 NI BB NOT_NAMED 1948-05-15 21:00:00 TS 14.7626 93.6551 main 134 95 P________P____ IO031948 14.7626 93.6551 -1 14.7626 93.6551 TC 10 65
1948137N15093 1948 30 NI BB NOT_NAMED 1948-05-16 00:00:00 TS 15.0000 94.1000 main 95 55 O________O____ jtwc_io IO031948 15.0000 94.1000 -1 15.0000 94.1000 TC 25 10 54
1948137N15093 1948 30 NI BB NOT_NAMED 1948-05-16 03:00:00 TS 15.3556 94.5087 main 46 0 P________PO___ IO031948 15.3625 94.5098 -1 15.3625 94.5098 TC 25 15.3000 94.5000 1 10 40
1948137N15093 1948 30 NI BB NOT_NAMED 1948-05-16 06:00:00 TS 15.7968 94.7830 main 0 0 O________OP___ jtwc_io IO031948 15.8000 94.8000 -1 15.8000 94.8000 TC 25 15.7841 94.7149 1 10 24
1948137N15093 1948 30 NI BB NOT_NAMED 1948-05-16 09:00:00 TS 16.2484 94.9221 main 0 0 P________PP___ IO031948 16.2424 94.9400 -1 16.2424 94.9400 TC 25 16.2644 94.8745 1 9 8
1948137N15093 1948 30 NI BB NOT_NAMED 1948-05-16 12:00:00 TS 16.7125 94.9073 main 0 0 O________OP___ jtwc_io IO031948 16.7000 94.9000 -1 16.7000 94.9000 TC 25 16.7375 94.9220 1 9 350
1948137N15093 1948 30 NI BB NOT_NAMED 1948-05-16 15:00:00 TS 17.1666 94.7549 main 0 0 P________PO___ IO031948 17.1499 94.7324 -1 17.1499 94.7324 TC 25 17.2000 94.8000 1 10 333
1948137N15093 1948 30 NI BB NOT_NAMED 1948-05-16 18:00:00 TS 17.6157 94.4254 main 21 15 O________OP___ jtwc_io IO031948 17.6000 94.4000 -1 17.6000 94.4000 TC 25 17.6470 94.4761 1 12 319
1948137N15093 1948 30 NI BB NOT_NAMED 1948-05-16 21:00:00 TS 18.0716 93.9404 main 43 43 P________PP___ IO031948 18.0728 93.9005 -1 18.0728 93.9005 TC 25 18.0691 94.0202 1 13 313
1948137N15093 1948 30 NI BB NOT_NAMED 1948-05-17 00:00:00 TS 18.4855 93.4430 main 61 53 O________OP___ jtwc_io IO031948 18.5000 93.4000 -1 18.5000 93.4000 TC 25 18.4565 93.5290 1 11 313
1948137N15093 1948 30 NI BB NOT_NAMED 1948-05-17 03:00:00 TS 18.8199 93.0981 main 66 64 P________PO___ IO031948 18.8298 93.0972 -1 18.8298 93.0972 TC 25 18.8000 93.1000 1 8 319
1948137N15093 1948 30 NI BB NOT_NAMED 1948-05-17 06:00:00 TS 19.0989 92.8886 main 76 76 O________OP___ jtwc_io IO031948 19.1000 92.9000 -1 19.1000 92.9000 TC 25 19.0966 92.8658 1 7 327
1948137N15093 1948 30 NI BB NOT_NAMED 1948-05-17 09:00:00 TS 19.3606 92.7212 main 81 64 P________PP___ IO031948 19.3650 92.7274 -1 19.3650 92.7274 TC 25 19.3518 92.7087 1 6 331
1948137N15093 1948 30 NI BB NOT_NAMED 1948-05-17 12:00:00 TS 19.5937 92.5991 main 64 53 O________OP___ jtwc_io IO031948 19.6000 92.6000 -1 19.6000 92.6000 TC 25 19.5811 92.5973 1 5 335
1948137N15093 1948 30 NI BB NOT_NAMED 1948-05-17 15:00:00 TS 19.8000 92.4999 main 53 45 P________PO___ IO031948 19.8000 92.4999 -1 19.8000 92.4999 TC 25 19.8000 92.5000 1 5 335
1948137N15093 1948 30 NI BB NOT_NAMED 1948-05-17 18:00:00 TS 20.0084 92.3964 main 45 38 O________OP___ jtwc_io IO031948 20.0000 92.4000 -1 20.0000 92.4000 TC 25 20.0209 92.3909 1 5 334
1948137N15093 1948 30 NI BB NOT_NAMED 1948-05-17 21:00:00 TS 20.2409 92.2651 main 43 38 P________PP___ IO031948 20.2375 92.2627 -1 20.2375 92.2627 TC 25 20.2454 92.2683 1 5 331
1948137N15093 1948 30 NI BB NOT_NAMED 1948-05-18 00:00:00 TS 20.4861 92.1183 main 38 33 O________OP___ jtwc_io IO031948 20.5000 92.1000 -1 20.5000 92.1000 TC 25 20.4721 92.1366 1 5 332
1948137N15093 1948 30 NI BB NOT_NAMED 1948-05-18 03:00:00 NR 20.7000 92.0000 main 38 __________O___ IO031948 -1 TC 20.7000 92.0000 1 5 333

About IBTrACS Database

This database is a web-friendly format of International Best Track Archive for Climate Stewardship (IBTrACS), a global best track data archive curated by NOAA dating back to 1842.

Updated: 2021-12-08